createdAt,value
2023-02-24T00:07:30.007Z,9.00
2023-02-24T00:17:38.506Z,8.90
2023-02-24T00:27:42.481Z,8.90
2023-02-24T00:37:51.558Z,8.90
2023-02-24T00:47:57.434Z,8.80
2023-02-24T00:58:03.147Z,8.80
2023-02-24T01:08:06.932Z,8.80
2023-02-24T01:18:13.125Z,8.70
2023-02-24T01:28:17.762Z,8.60
2023-02-24T01:38:23.328Z,8.70
2023-02-24T01:48:29.990Z,8.70
2023-02-24T01:58:37.097Z,8.80
2023-02-24T02:08:43.304Z,8.70
2023-02-24T02:18:57.544Z,8.60
2023-02-24T02:29:37.333Z,8.60
2023-02-24T02:39:52.953Z,8.60
2023-02-24T02:50:01.610Z,8.60
2023-02-24T03:00:13.950Z,8.60
2023-02-24T03:10:23.438Z,8.50
2023-02-24T03:20:37.042Z,8.50
2023-02-24T03:30:46.037Z,8.60
2023-02-24T03:40:51.436Z,8.50
2023-02-24T03:50:55.734Z,8.40
2023-02-24T04:01:13.086Z,8.40
2023-02-24T04:11:26.876Z,8.30
2023-02-24T04:21:34.216Z,8.40
2023-02-24T04:31:39.099Z,8.30
2023-02-24T04:41:44.208Z,8.30
2023-02-24T04:51:48.057Z,8.30
2023-02-24T05:01:54.929Z,8.30
2023-02-24T05:12:00.431Z,8.30
2023-02-24T05:22:07.038Z,8.10
2023-02-24T05:32:14.332Z,7.90
2023-02-24T05:42:19.428Z,7.90
2023-02-24T05:52:23.288Z,7.90
2023-02-24T06:02:29.220Z,7.90
2023-02-24T06:12:36.048Z,7.90
2023-02-24T06:22:42.415Z,7.80
2023-02-24T06:32:46.433Z,7.50
2023-02-24T06:42:54.910Z,7.70
2023-02-24T06:53:01.138Z,7.80
2023-02-24T07:03:15.743Z,7.90
2023-02-24T07:13:19.441Z,8.00
2023-02-24T07:23:24.398Z,8.00
2023-02-24T07:33:28.063Z,8.10
2023-02-24T07:43:33.452Z,8.20
2023-02-24T07:53:37.478Z,8.40
2023-02-24T08:03:42.498Z,8.70
2023-02-24T08:13:46.469Z,8.70
2023-02-24T08:23:53.031Z,8.90
2023-02-24T08:33:57.136Z,9.00
2023-02-24T08:44:02.924Z,9.20
2023-02-24T08:54:15.238Z,9.50
2023-02-24T09:04:20.234Z,9.60
2023-02-24T09:14:28.479Z,9.50
2023-02-24T09:24:34.539Z,9.60
2023-02-24T09:34:44.247Z,9.70
2023-02-24T09:44:55.587Z,9.80
2023-02-24T09:55:19.020Z,9.90
2023-02-24T10:05:29.794Z,9.90
2023-02-24T10:15:57.037Z,10.00
2023-02-24T10:26:07.609Z,10.30
2023-02-24T10:36:17.160Z,10.70
2023-02-24T10:46:40.990Z,11.00
2023-02-24T10:56:55.335Z,11.30
2023-02-24T11:07:10.313Z,10.80
2023-02-24T11:17:26.942Z,10.80
2023-02-24T11:27:32.749Z,11.20
2023-02-24T11:37:43.046Z,11.20
2023-02-24T11:47:53.110Z,11.30
2023-02-24T11:58:00.206Z,11.20
2023-02-24T12:08:13.530Z,10.80
2023-02-24T12:18:34.936Z,10.80
2023-02-24T12:29:18.613Z,11.00
2023-02-24T12:39:31.650Z,10.80
2023-02-24T12:50:06.842Z,10.50
2023-02-24T13:00:20.484Z,10.40
2023-02-24T13:10:37.401Z,10.20
2023-02-24T13:20:42.892Z,10.00
2023-02-24T13:30:48.109Z,10.10
2023-02-24T13:40:52.277Z,9.80
2023-02-24T13:51:28.720Z,10.00
2023-02-24T14:01:46.999Z,9.90
2023-02-24T14:11:58.900Z,9.90
2023-02-24T14:22:03.227Z,9.80
2023-02-24T14:32:08.544Z,9.70
2023-02-24T14:42:15.932Z,9.70
2023-02-24T14:52:30.203Z,9.50
2023-02-24T15:02:35.203Z,9.40
2023-02-24T15:12:49.541Z,9.30
2023-02-24T15:22:53.419Z,9.10
2023-02-24T15:33:07.739Z,9.00
2023-02-24T15:43:12.838Z,8.90
2023-02-24T15:53:18.636Z,8.90
2023-02-24T16:03:23.924Z,8.70
2023-02-24T16:13:30.385Z,8.60
2023-02-24T16:23:40.215Z,8.60
2023-02-24T16:33:54.399Z,8.60
2023-02-24T16:43:59.139Z,8.40
2023-02-24T16:54:04.490Z,8.00
2023-02-24T17:04:09.824Z,7.60
2023-02-24T17:14:19.237Z,7.30
2023-02-24T17:24:23.186Z,7.10
2023-02-24T17:34:28.237Z,6.90
2023-02-24T17:44:32.105Z,6.80
2023-02-24T17:54:37.714Z,6.70
2023-02-24T18:04:41.884Z,6.70
2023-02-24T18:14:58.977Z,6.50
2023-02-24T18:25:07.450Z,6.60
2023-02-24T18:35:13.249Z,6.60
2023-02-24T18:45:17.247Z,6.50
2023-02-24T18:55:22.579Z,6.50
2023-02-24T19:05:37.748Z,6.60
2023-02-24T19:15:44.689Z,6.40
2023-02-24T19:25:48.444Z,6.30
2023-02-24T19:35:53.819Z,6.40
2023-02-24T19:45:57.526Z,6.30
2023-02-24T19:56:02.875Z,6.20
2023-02-24T20:06:08.065Z,6.10
2023-02-24T20:16:15.856Z,6.10
2023-02-24T20:26:20.565Z,6.00
2023-02-24T20:36:27.994Z,5.90
2023-02-24T20:46:33.819Z,5.80
2023-02-24T20:56:41.814Z,5.80
2023-02-24T21:06:46.607Z,5.70
2023-02-24T21:16:51.608Z,5.90
2023-02-24T21:26:55.340Z,6.20
2023-02-24T21:37:01.623Z,6.20
2023-02-24T21:47:07.246Z,6.20
2023-02-24T21:57:12.309Z,6.10
2023-02-24T22:07:16.179Z,6.20
2023-02-24T22:17:21.146Z,6.00
2023-02-24T22:27:24.967Z,5.90
2023-02-24T22:37:30.728Z,5.70
2023-02-24T22:47:34.561Z,5.60
2023-02-24T22:57:39.607Z,5.40
2023-02-24T23:07:44.073Z,5.40
2023-02-24T23:17:49.270Z,5.40
2023-02-24T23:27:54.335Z,5.40
2023-02-24T23:37:59.332Z,5.20
2023-02-24T23:48:02.947Z,5.20
2023-02-24T23:58:08.125Z,5.20
